createdAt,value
2024-01-16T00:00:40.589Z,61.97
2024-01-16T00:03:07.340Z,61.81
2024-01-16T00:05:34.062Z,63.19
2024-01-16T00:08:01.323Z,63.19
2024-01-16T00:10:28.145Z,63.43
2024-01-16T00:12:55.386Z,64.22
2024-01-16T00:15:22.094Z,61.38
2024-01-16T00:17:49.243Z,61.75
2024-01-16T00:20:16.163Z,62.16
2024-01-16T00:22:42.904Z,62.14
2024-01-16T00:25:09.853Z,62.16
2024-01-16T00:27:36.634Z,61.57
2024-01-16T00:30:03.366Z,62.94
2024-01-16T00:32:30.174Z,63.30
2024-01-16T00:34:56.894Z,61.29
2024-01-16T00:37:23.620Z,61.46
2024-01-16T00:39:50.294Z,61.34
2024-01-16T00:42:16.995Z,60.82
2024-01-16T00:44:43.788Z,59.65
2024-01-16T00:47:10.538Z,60.66
2024-01-16T00:49:38.047Z,62.04
2024-01-16T00:52:05.635Z,61.75
2024-01-16T00:54:32.282Z,62.38
2024-01-16T00:57:01.007Z,60.61
2024-01-16T00:59:28.083Z,60.53
2024-01-16T01:01:54.813Z,61.80
2024-01-16T01:04:21.491Z,62.09
2024-01-16T01:06:48.154Z,60.64
2024-01-16T01:09:14.920Z,60.76
2024-01-16T01:11:41.767Z,60.16
2024-01-16T01:14:08.696Z,60.64
2024-01-16T01:16:35.634Z,60.57
2024-01-16T01:19:02.541Z,60.80
2024-01-16T01:21:29.310Z,61.41
2024-01-16T01:23:56.020Z,62.31
2024-01-16T01:26:22.816Z,61.67
2024-01-16T01:28:49.546Z,62.45
2024-01-16T01:31:16.256Z,63.30
2024-01-16T01:33:43.720Z,61.93
2024-01-16T01:36:11.209Z,62.77
2024-01-16T01:38:38.150Z,61.59
2024-01-16T01:41:08.180Z,62.43
2024-01-16T01:43:35.653Z,61.66
2024-01-16T01:46:15.993Z,61.86
2024-01-16T01:48:43.706Z,60.30
2024-01-16T01:51:13.197Z,59.84
2024-01-16T01:53:41.031Z,60.52
2024-01-16T01:56:19.814Z,59.85
2024-01-16T01:58:48.986Z,60.56
2024-01-16T02:01:17.448Z,60.43
2024-01-16T02:03:45.780Z,59.51
2024-01-16T02:06:13.701Z,60.34
2024-01-16T02:08:41.360Z,60.41
2024-01-16T02:11:08.362Z,59.68
2024-01-16T02:13:35.633Z,59.41
2024-01-16T02:16:02.624Z,60.20
2024-01-16T02:18:29.353Z,61.43
2024-01-16T02:21:04.760Z,60.89
2024-01-16T02:23:32.711Z,60.23
2024-01-16T02:26:00.235Z,61.03
2024-01-16T02:28:26.991Z,61.33
2024-01-16T02:30:53.768Z,60.58
2024-01-16T02:33:20.843Z,60.58
2024-01-16T02:35:47.744Z,61.06
2024-01-16T02:38:14.502Z,61.29
2024-01-16T02:40:41.581Z,60.63
2024-01-16T02:43:08.592Z,60.51
2024-01-16T02:45:35.350Z,61.42
2024-01-16T02:48:04.707Z,60.80
2024-01-16T02:50:31.669Z,61.46
2024-01-16T02:52:58.386Z,61.55
2024-01-16T02:55:25.801Z,61.37
2024-01-16T02:57:52.691Z,61.80
2024-01-16T03:00:19.644Z,62.03
2024-01-16T03:02:46.546Z,60.13
2024-01-16T03:05:13.415Z,60.31
2024-01-16T03:07:40.179Z,60.71
2024-01-16T03:10:07.927Z,60.83
2024-01-16T03:12:34.624Z,59.53
2024-01-16T03:15:01.381Z,61.46
2024-01-16T03:17:28.054Z,61.24
2024-01-16T03:19:54.793Z,60.79
2024-01-16T03:22:21.534Z,61.27
2024-01-16T03:24:48.238Z,62.35
2024-01-16T03:27:14.954Z,62.80
2024-01-16T03:29:41.740Z,62.81
2024-01-16T03:32:08.985Z,63.54
2024-01-16T03:34:35.733Z,62.58
2024-01-16T03:37:02.460Z,62.75
2024-01-16T03:39:29.290Z,61.51
2024-01-16T03:41:56.041Z,63.17
2024-01-16T03:44:22.792Z,63.23
2024-01-16T03:46:49.514Z,62.00
2024-01-16T03:49:16.297Z,61.48
2024-01-16T03:51:47.639Z,61.56
2024-01-16T03:54:14.669Z,61.96
2024-01-16T03:56:41.565Z,61.38
2024-01-16T03:59:08.381Z,62.89
2024-01-16T04:01:38.336Z,62.15
2024-01-16T04:04:08.377Z,62.31
2024-01-16T04:06:35.342Z,61.11
2024-01-16T04:09:02.632Z,60.80
2024-01-16T04:11:29.955Z,62.02
2024-01-16T04:13:57.033Z,61.94
2024-01-16T04:16:23.797Z,61.99
2024-01-16T04:18:50.535Z,62.34
2024-01-16T04:21:20.484Z,62.48
2024-01-16T04:23:47.968Z,63.64
2024-01-16T04:26:14.970Z,63.09
2024-01-16T04:28:41.736Z,63.10
2024-01-16T04:31:08.573Z,63.46
2024-01-16T04:33:35.413Z,62.56
2024-01-16T04:36:02.223Z,62.32
2024-01-16T04:38:29.022Z,62.07
2024-01-16T04:40:55.740Z,62.36
2024-01-16T04:43:22.434Z,63.75
2024-01-16T04:45:49.101Z,62.90
2024-01-16T04:48:15.897Z,63.61
2024-01-16T04:50:42.816Z,63.09
2024-01-16T04:53:09.572Z,62.62
2024-01-16T04:55:36.376Z,63.75
2024-01-16T04:58:03.140Z,63.20
2024-01-16T05:00:29.894Z,62.06
2024-01-16T05:02:56.806Z,62.66
2024-01-16T05:05:25.265Z,63.36
2024-01-16T05:07:54.889Z,63.58
2024-01-16T05:10:21.674Z,63.47
2024-01-16T05:12:48.394Z,63.33
2024-01-16T05:15:15.640Z,62.20
2024-01-16T05:17:42.564Z,63.09
2024-01-16T05:20:09.873Z,62.44
2024-01-16T05:22:36.651Z,62.43
2024-01-16T05:25:03.523Z,62.17
2024-01-16T05:27:30.252Z,62.84
2024-01-16T05:29:57.040Z,63.93
2024-01-16T05:32:23.812Z,62.39
2024-01-16T05:34:50.573Z,63.68
2024-01-16T05:37:17.268Z,64.48
2024-01-16T05:39:44.576Z,64.97
2024-01-16T05:42:12.502Z,64.61
2024-01-16T05:44:39.597Z,64.98
2024-01-16T05:47:07.083Z,65.11
2024-01-16T05:49:34.293Z,64.36
2024-01-16T05:52:01.271Z,64.51
2024-01-16T05:54:28.752Z,64.30
2024-01-16T05:56:55.621Z,63.23
2024-01-16T05:59:22.389Z,63.81
2024-01-16T06:01:50.346Z,64.50
2024-01-16T06:04:17.094Z,63.79
2024-01-16T06:06:46.640Z,64.50
2024-01-16T06:09:15.265Z,64.28
2024-01-16T06:11:42.512Z,64.22
2024-01-16T06:14:09.701Z,64.15
2024-01-16T06:16:37.212Z,65.02
2024-01-16T06:19:04.413Z,64.33
2024-01-16T06:21:32.336Z,63.65
2024-01-16T06:23:59.068Z,62.60
2024-01-16T06:26:25.906Z,61.85
2024-01-16T06:28:52.581Z,61.47
2024-01-16T06:31:19.472Z,61.34
2024-01-16T06:33:46.425Z,61.17
2024-01-16T06:36:13.294Z,60.63
2024-01-16T06:38:41.861Z,60.97
2024-01-16T06:41:09.013Z,61.32
2024-01-16T06:43:36.352Z,61.53
2024-01-16T06:46:03.133Z,61.25
2024-01-16T06:48:30.265Z,62.12
2024-01-16T06:50:57.295Z,61.75
2024-01-16T06:53:24.549Z,61.42
2024-01-16T06:55:51.448Z,61.35
2024-01-16T06:58:18.093Z,61.36
2024-01-16T07:00:46.008Z,60.83
2024-01-16T07:03:12.833Z,61.51
2024-01-16T07:05:42.045Z,61.13
2024-01-16T07:08:09.290Z,61.27
2024-01-16T07:10:36.866Z,60.44
2024-01-16T07:13:03.900Z,60.68
2024-01-16T07:15:30.646Z,60.83
2024-01-16T07:17:57.525Z,60.25
2024-01-16T07:20:24.286Z,60.05
2024-01-16T07:22:51.005Z,60.46
2024-01-16T07:25:18.334Z,60.24
2024-01-16T07:27:47.854Z,59.97
2024-01-16T07:30:14.742Z,60.25
2024-01-16T07:32:41.635Z,60.12
2024-01-16T07:35:08.948Z,60.26
2024-01-16T07:37:35.622Z,60.13
2024-01-16T07:40:02.445Z,59.88
2024-01-16T07:42:35.227Z,59.34
2024-01-16T07:45:05.895Z,59.67
2024-01-16T07:47:34.240Z,59.06
2024-01-16T07:50:03.275Z,58.57
2024-01-16T07:52:31.110Z,58.33
2024-01-16T07:54:58.190Z,58.07
2024-01-16T07:57:24.853Z,57.95
2024-01-16T07:59:51.630Z,57.13
2024-01-16T08:02:20.234Z,56.80
2024-01-16T08:04:47.954Z,56.45
2024-01-16T08:07:14.646Z,55.98
2024-01-16T08:09:41.507Z,55.67
2024-01-16T08:12:08.681Z,55.16
2024-01-16T08:14:35.855Z,54.58
2024-01-16T08:17:02.727Z,54.22
2024-01-16T08:19:29.635Z,54.16
2024-01-16T08:21:56.335Z,54.15
2024-01-16T08:24:23.998Z,53.38
2024-01-16T08:26:50.835Z,53.51
2024-01-16T08:29:17.774Z,52.84
2024-01-16T08:31:44.542Z,52.40
2024-01-16T08:34:11.554Z,51.59
2024-01-16T08:36:38.550Z,52.26
2024-01-16T08:39:06.956Z,51.78
2024-01-16T08:41:33.736Z,51.62
2024-01-16T08:44:00.424Z,50.79
2024-01-16T08:46:27.089Z,49.19
2024-01-16T08:48:53.986Z,47.37
2024-01-16T08:51:20.855Z,47.23
2024-01-16T08:53:47.661Z,46.41
2024-01-16T08:56:14.512Z,45.37
2024-01-16T08:58:41.694Z,44.21
2024-01-16T09:01:08.611Z,43.91
2024-01-16T09:03:35.904Z,43.53
2024-01-16T09:06:03.095Z,43.81
2024-01-16T09:08:30.031Z,45.15
2024-01-16T09:10:57.883Z,45.81
2024-01-16T09:13:24.666Z,46.51
2024-01-16T09:15:51.469Z,46.90
2024-01-16T09:18:18.344Z,47.46
2024-01-16T09:20:45.686Z,47.20
2024-01-16T09:23:12.472Z,46.66
2024-01-16T09:25:39.374Z,46.73
2024-01-16T09:28:06.351Z,46.44
2024-01-16T09:30:34.599Z,46.38
2024-01-16T09:33:01.621Z,46.70
2024-01-16T09:35:28.486Z,46.27
2024-01-16T09:37:55.186Z,45.65
2024-01-16T09:40:22.021Z,44.66
2024-01-16T09:42:48.735Z,43.32
2024-01-16T09:45:23.074Z,41.83
2024-01-16T09:47:53.366Z,39.87
2024-01-16T09:50:20.926Z,39.09
2024-01-16T09:52:48.614Z,38.11
2024-01-16T09:55:16.534Z,36.85
2024-01-16T09:57:47.504Z,36.65
2024-01-16T10:00:15.226Z,36.12
2024-01-16T10:02:43.446Z,35.63
2024-01-16T10:05:12.643Z,35.52
2024-01-16T10:07:40.606Z,35.75
2024-01-16T10:10:12.081Z,35.53
2024-01-16T10:12:41.039Z,35.42
2024-01-16T10:15:09.143Z,34.86
2024-01-16T10:17:43.760Z,34.36
2024-01-16T10:20:17.742Z,34.70
2024-01-16T10:22:57.215Z,33.76
2024-01-16T10:25:24.000Z,32.90
2024-01-16T10:28:03.456Z,33.51
2024-01-16T10:30:30.451Z,32.96
2024-01-16T10:33:13.208Z,33.27
2024-01-16T10:35:40.047Z,33.36
2024-01-16T10:38:07.231Z,33.23
2024-01-16T10:40:35.319Z,33.82
2024-01-16T10:43:02.031Z,34.05
2024-01-16T10:45:28.906Z,34.57
2024-01-16T10:48:07.129Z,34.58
2024-01-16T10:50:35.644Z,33.97
2024-01-16T10:53:07.796Z,34.54
2024-01-16T10:55:54.494Z,34.01
2024-01-16T10:58:29.312Z,33.96
2024-01-16T11:00:58.760Z,33.61
2024-01-16T11:03:49.784Z,32.34
2024-01-16T11:06:18.674Z,33.90
2024-01-16T11:08:49.924Z,34.21
2024-01-16T11:11:17.828Z,34.36
2024-01-16T11:13:47.713Z,34.24
2024-01-16T11:16:14.749Z,34.64
2024-01-16T11:18:41.682Z,34.32
2024-01-16T11:21:19.571Z,34.17
2024-01-16T11:23:47.952Z,35.00
2024-01-16T11:26:35.372Z,34.42
2024-01-16T11:29:27.950Z,34.37
2024-01-16T11:32:13.174Z,34.39
2024-01-16T11:34:45.721Z,34.49
2024-01-16T11:37:15.317Z,33.04
2024-01-16T11:39:42.170Z,32.46
2024-01-16T11:42:12.007Z,32.70
2024-01-16T11:44:42.789Z,33.14
2024-01-16T11:47:10.465Z,33.05
2024-01-16T11:49:41.585Z,32.98
2024-01-16T11:52:08.918Z,33.06
2024-01-16T11:54:35.622Z,33.74
2024-01-16T11:57:45.301Z,33.38
2024-01-16T12:00:20.902Z,32.12
2024-01-16T12:02:54.083Z,31.09
2024-01-16T12:05:21.961Z,32.22
2024-01-16T12:07:55.631Z,32.12
2024-01-16T12:10:24.475Z,32.19
2024-01-16T12:12:52.846Z,32.38
2024-01-16T12:15:21.669Z,32.67
2024-01-16T12:18:09.260Z,32.82
2024-01-16T12:20:40.352Z,34.21
2024-01-16T12:23:08.562Z,33.72
2024-01-16T12:26:00.804Z,33.17
2024-01-16T12:28:31.829Z,34.11
2024-01-16T12:31:01.053Z,34.24
2024-01-16T12:33:28.900Z,34.48
2024-01-16T12:36:04.429Z,34.22
2024-01-16T12:38:31.504Z,35.95
2024-01-16T12:40:59.870Z,37.37
2024-01-16T12:43:26.698Z,38.27
2024-01-16T12:45:59.571Z,38.88
2024-01-16T12:48:30.229Z,38.33
2024-01-16T12:51:05.044Z,38.26
2024-01-16T12:53:33.299Z,38.34
2024-01-16T12:56:01.984Z,38.38
2024-01-16T12:58:35.921Z,39.40
2024-01-16T13:01:35.033Z,39.14
2024-01-16T13:04:06.974Z,39.80
2024-01-16T13:06:33.860Z,39.54
2024-01-16T13:09:12.465Z,38.61
2024-01-16T13:11:57.453Z,38.28
2024-01-16T13:14:24.793Z,37.59
2024-01-16T13:16:52.310Z,37.26
2024-01-16T13:19:23.002Z,37.51
2024-01-16T13:21:50.939Z,38.52
2024-01-16T13:24:24.527Z,39.02
2024-01-16T13:26:51.945Z,39.14
2024-01-16T13:29:18.691Z,39.23
2024-01-16T13:31:45.600Z,38.71
2024-01-16T13:34:13.375Z,38.91
2024-01-16T13:36:54.234Z,38.90
2024-01-16T13:39:27.664Z,40.55
2024-01-16T13:41:54.798Z,40.16
2024-01-16T13:44:21.523Z,42.23
2024-01-16T13:46:57.759Z,41.76
2024-01-16T13:49:34.790Z,42.37
2024-01-16T13:52:01.960Z,42.18
2024-01-16T13:54:28.716Z,42.36
2024-01-16T13:57:03.300Z,42.41
2024-01-16T13:59:34.552Z,42.67
2024-01-16T14:02:02.274Z,42.52
2024-01-16T14:04:29.716Z,42.82
2024-01-16T14:07:10.434Z,42.52
2024-01-16T14:09:42.880Z,44.19
2024-01-16T14:12:10.555Z,44.04
2024-01-16T14:14:39.721Z,44.02
2024-01-16T14:17:06.934Z,44.68
2024-01-16T14:19:37.399Z,44.82
2024-01-16T14:22:04.528Z,43.66
2024-01-16T14:24:31.566Z,44.19
2024-01-16T14:26:58.661Z,44.88
2024-01-16T14:29:25.549Z,44.74
2024-01-16T14:31:52.631Z,45.42
2024-01-16T14:34:20.498Z,44.49
2024-01-16T14:36:47.893Z,44.31
2024-01-16T14:39:18.673Z,44.49
2024-01-16T14:41:45.986Z,45.15
2024-01-16T14:44:13.490Z,46.28
2024-01-16T14:46:41.789Z,45.13
2024-01-16T14:49:09.024Z,46.33
2024-01-16T14:51:36.632Z,45.47
2024-01-16T14:54:03.539Z,44.88
2024-01-16T14:56:31.455Z,45.86
2024-01-16T14:58:58.794Z,46.78
2024-01-16T15:01:25.505Z,48.17
2024-01-16T15:03:52.670Z,47.38
2024-01-16T15:06:19.558Z,48.09
2024-01-16T15:08:46.419Z,47.83
2024-01-16T15:11:13.217Z,48.57
2024-01-16T15:13:39.992Z,48.61
2024-01-16T15:16:06.678Z,48.74
2024-01-16T15:18:33.856Z,49.24
2024-01-16T15:21:00.757Z,50.26
2024-01-16T15:23:29.025Z,50.35
2024-01-16T15:25:56.161Z,50.48
2024-01-16T15:28:22.838Z,51.38
2024-01-16T15:30:49.715Z,52.05
2024-01-16T15:33:16.778Z,52.40
2024-01-16T15:35:43.548Z,51.96
2024-01-16T15:38:11.699Z,52.27
2024-01-16T15:40:38.440Z,52.23
2024-01-16T15:43:05.157Z,52.50
2024-01-16T15:45:31.985Z,52.00
2024-01-16T15:47:59.185Z,53.96
2024-01-16T15:50:27.897Z,54.44
2024-01-16T15:52:55.160Z,53.67
2024-01-16T15:55:22.238Z,53.87
2024-01-16T15:57:49.391Z,54.79
2024-01-16T16:02:47.528Z,56.44
2024-01-16T16:05:14.538Z,57.42
2024-01-16T16:07:41.307Z,56.03
2024-01-16T16:10:08.676Z,55.83
2024-01-16T16:12:35.348Z,56.24
2024-01-16T16:15:02.302Z,56.29
2024-01-16T16:17:29.181Z,56.51
2024-01-16T16:19:55.883Z,57.15
2024-01-16T16:22:22.608Z,59.08
2024-01-16T16:24:49.852Z,59.57
2024-01-16T16:27:25.001Z,58.77
2024-01-16T16:29:54.508Z,58.88
2024-01-16T16:32:21.264Z,59.18
2024-01-16T16:34:48.621Z,58.75
2024-01-16T16:37:15.440Z,59.55
2024-01-16T16:39:42.333Z,58.52
2024-01-16T16:42:09.113Z,59.51
2024-01-16T16:44:35.941Z,59.16
2024-01-16T16:47:03.644Z,58.78
2024-01-16T16:49:30.445Z,58.60
2024-01-16T16:51:57.143Z,58.11
2024-01-16T16:54:24.957Z,58.50
2024-01-16T16:56:52.588Z,58.73
2024-01-16T16:59:19.389Z,58.79
2024-01-16T17:01:46.089Z,59.81
2024-01-16T17:04:12.957Z,59.48
2024-01-16T17:06:39.842Z,59.49
2024-01-16T17:09:12.972Z,58.76
2024-01-16T17:11:40.660Z,58.56
2024-01-16T17:14:07.466Z,59.07
2024-01-16T17:16:34.222Z,59.98
2024-01-16T17:19:01.086Z,60.71
2024-01-16T17:21:28.129Z,60.57
2024-01-16T17:23:54.921Z,60.65
2024-01-16T17:26:22.122Z,59.12
2024-01-16T17:28:48.826Z,58.92
2024-01-16T17:31:15.575Z,58.88
2024-01-16T17:33:44.692Z,58.64
2024-01-16T17:36:12.581Z,59.26
2024-01-16T17:38:41.347Z,59.34
2024-01-16T17:41:08.232Z,59.48
2024-01-16T17:43:35.019Z,60.75
2024-01-16T17:46:01.713Z,60.48
2024-01-16T17:48:29.153Z,61.30
2024-01-16T17:50:56.345Z,60.16
2024-01-16T17:53:23.299Z,59.47
2024-01-16T17:55:50.032Z,60.12
2024-01-16T17:58:16.883Z,60.66
2024-01-16T18:00:43.819Z,60.03
2024-01-16T18:03:24.464Z,60.35
2024-01-16T18:06:00.762Z,61.74
2024-01-16T18:08:27.596Z,62.13
2024-01-16T18:10:55.813Z,61.51
2024-01-16T18:13:23.397Z,61.78
2024-01-16T18:15:50.187Z,61.24
2024-01-16T18:18:18.573Z,61.55
2024-01-16T18:20:45.441Z,61.77
2024-01-16T18:23:12.661Z,62.58
2024-01-16T18:25:39.431Z,62.06
2024-01-16T18:28:06.409Z,62.50
2024-01-16T18:30:36.006Z,62.52
2024-01-16T18:33:04.204Z,62.98
2024-01-16T18:35:30.989Z,62.69
2024-01-16T18:37:58.617Z,63.77
2024-01-16T18:40:27.036Z,64.16
2024-01-16T18:42:53.748Z,64.62
2024-01-16T18:45:20.454Z,64.83
2024-01-16T18:47:49.452Z,64.72
2024-01-16T18:50:18.779Z,64.44
2024-01-16T18:52:46.471Z,65.69
2024-01-16T18:55:17.186Z,66.34
2024-01-16T18:57:44.454Z,67.62
2024-01-16T19:00:16.065Z,66.72
2024-01-16T19:02:49.209Z,66.50
2024-01-16T19:05:17.150Z,67.06
2024-01-16T19:07:45.582Z,67.18
2024-01-16T19:10:13.863Z,66.14
2024-01-16T19:12:48.095Z,65.91
2024-01-16T19:15:19.157Z,66.33
2024-01-16T19:17:51.851Z,65.05
2024-01-16T19:20:23.101Z,64.62
2024-01-16T19:22:56.473Z,64.21
2024-01-16T19:25:26.569Z,65.10
2024-01-16T19:27:53.723Z,66.31
2024-01-16T19:30:21.731Z,66.35
2024-01-16T19:32:49.606Z,66.36
2024-01-16T19:35:18.477Z,66.93
2024-01-16T19:37:45.816Z,66.77
2024-01-16T19:40:14.048Z,66.76
2024-01-16T19:42:41.523Z,66.41
2024-01-16T19:45:10.499Z,66.41
2024-01-16T19:47:43.072Z,66.57
2024-01-16T19:50:21.379Z,66.38
2024-01-16T19:52:51.629Z,67.07
2024-01-16T19:55:22.386Z,67.56
2024-01-16T19:57:49.303Z,67.86
2024-01-16T20:00:17.892Z,67.78
2024-01-16T20:02:45.523Z,67.67
2024-01-16T20:05:16.454Z,68.39
2024-01-16T20:07:43.859Z,68.32
2024-01-16T20:10:15.199Z,68.45
2024-01-16T20:12:46.804Z,68.62
2024-01-16T20:15:14.839Z,67.82
2024-01-16T20:17:42.930Z,67.97
2024-01-16T20:20:11.719Z,66.93
2024-01-16T20:22:38.788Z,66.49
2024-01-16T20:25:06.112Z,66.38
2024-01-16T20:27:33.205Z,66.09
2024-01-16T20:30:00.043Z,66.17
2024-01-16T20:32:26.959Z,66.56
2024-01-16T20:34:54.551Z,67.27
2024-01-16T20:37:21.340Z,68.12
2024-01-16T20:39:48.757Z,68.43
2024-01-16T20:42:15.493Z,67.16
2024-01-16T20:44:42.239Z,66.89
2024-01-16T20:47:11.624Z,67.24
2024-01-16T20:49:38.464Z,66.76
2024-01-16T20:52:05.961Z,66.90
2024-01-16T20:54:32.805Z,66.83
2024-01-16T20:56:59.761Z,66.58
2024-01-16T20:59:26.595Z,66.81
2024-01-16T21:01:53.382Z,67.16
2024-01-16T21:04:20.179Z,68.09
2024-01-16T21:06:47.028Z,68.67
2024-01-16T21:09:17.039Z,68.98
2024-01-16T21:11:44.897Z,69.46
2024-01-16T21:14:11.808Z,69.62
2024-01-16T21:16:38.742Z,70.35
2024-01-16T21:19:08.888Z,70.54
2024-01-16T21:21:35.723Z,70.33
2024-01-16T21:24:05.474Z,69.60
2024-01-16T21:26:32.248Z,71.96
2024-01-16T21:28:59.116Z,71.75
2024-01-16T21:31:25.792Z,71.16
2024-01-16T21:33:52.837Z,72.58
2024-01-16T21:36:19.954Z,71.52
2024-01-16T21:38:46.745Z,70.55
2024-01-16T21:41:13.849Z,71.40
2024-01-16T21:43:41.494Z,71.39
2024-01-16T21:46:08.243Z,69.44
2024-01-16T21:48:35.178Z,69.10
2024-01-16T21:51:02.237Z,69.10
2024-01-16T21:53:30.344Z,68.65
2024-01-16T21:55:57.274Z,69.38
2024-01-16T21:58:23.985Z,70.01
2024-01-16T22:00:51.677Z,71.43
2024-01-16T22:03:18.818Z,71.77
2024-01-16T22:05:46.258Z,71.40
2024-01-16T22:08:13.229Z,71.27
2024-01-16T22:10:43.365Z,70.23
2024-01-16T22:13:12.637Z,70.41
2024-01-16T22:15:39.427Z,70.54
2024-01-16T22:18:06.288Z,70.38
2024-01-16T22:20:33.767Z,71.09
2024-01-16T22:23:01.099Z,71.53
2024-01-16T22:25:29.597Z,70.95
2024-01-16T22:27:56.468Z,69.86
2024-01-16T22:30:23.315Z,69.00
2024-01-16T22:32:50.273Z,69.27
2024-01-16T22:35:17.071Z,70.01
2024-01-16T22:37:48.002Z,69.28
2024-01-16T22:40:15.365Z,68.40
2024-01-16T22:42:42.063Z,68.83
2024-01-16T22:45:09.804Z,69.61
2024-01-16T22:47:40.274Z,70.09
2024-01-16T22:50:10.454Z,70.36
2024-01-16T22:52:37.132Z,69.92
2024-01-16T22:55:05.317Z,69.77
2024-01-16T22:57:33.943Z,69.83
2024-01-16T23:00:01.380Z,69.89
2024-01-16T23:02:30.116Z,70.90
2024-01-16T23:04:57.045Z,70.80
2024-01-16T23:07:23.841Z,70.05
2024-01-16T23:09:50.531Z,69.36
2024-01-16T23:12:17.293Z,69.52
2024-01-16T23:14:44.549Z,70.69
2024-01-16T23:17:13.197Z,71.24
2024-01-16T23:19:40.247Z,71.83
2024-01-16T23:22:08.570Z,72.32
2024-01-16T23:24:35.313Z,72.00
2024-01-16T23:27:02.068Z,71.11
2024-01-16T23:29:31.072Z,71.03
2024-01-16T23:31:58.099Z,71.72
2024-01-16T23:34:24.867Z,71.84
2024-01-16T23:36:51.567Z,71.45
2024-01-16T23:39:19.266Z,71.12
2024-01-16T23:41:46.142Z,71.43
2024-01-16T23:44:12.986Z,72.02
2024-01-16T23:46:40.048Z,71.51
2024-01-16T23:49:07.070Z,71.19
2024-01-16T23:51:33.889Z,71.57
2024-01-16T23:54:03.379Z,71.68
2024-01-16T23:56:30.377Z,71.50
2024-01-16T23:58:57.083Z,71.48
